Observation data for Brownfield on 05/25/2019      Previous  Date  Next       Current Mesonet Observations  Soil Data  Daily Summary Page  Observations in Plain Language
KBWS 250500Z 15007KT 21/17 A2997 RMK A01 T02100174  RH  082%=      5-min Rain = 0
KBWS 250505Z 14007KT 21/17 A2997 RMK A01 T02100174  RH  082%=      5-min Rain = 0
KBWS 250510Z 13006KT 21/18 A2997 RMK A01 T02090175  RH  083%=      5-min Rain = 0
KBWS 250515Z 12006KT 21/18 A2997 RMK A01 T02080175  RH  083%=      5-min Rain = 0
KBWS 250520Z 09006KT 21/17 A2997 RMK A01 T02060174  RH  084%=      5-min Rain = 0
KBWS 250525Z 07007KT 20/17 A2997 RMK A01 T02030174  RH  086%=      5-min Rain = 0
KBWS 250530Z 08006KT 20/17 A2998 RMK A01 T02020174  RH  086%=      5-min Rain = 0
KBWS 250535Z 08006KT 20/17 A2998 RMK A01 T02010174  RH  087%=      5-min Rain = 0
KBWS 250540Z 09005KT 20/18 A2998 RMK A01 T02000175  RH  087%=      5-min Rain = 0
KBWS 250545Z 09005KT 20/17 A2998 RMK A01 T01990174  RH  088%=      5-min Rain = 0
KBWS 250550Z 09005KT 20/17 A2998 RMK A01 T01990174  RH  088%=      5-min Rain = 0
KBWS 250555Z 09005KT 20/17 A2998 RMK A01 T01980174  RH  088%=      5-min Rain = 0
KBWS 250600Z 09006KT 20/18 A2998 RMK A01 T01970175  RH  089%=      5-min Rain = 0
KBWS 250605Z 09007KT 20/17 A2997 RMK A01 T01960174  RH  089%=      5-min Rain = 0
KBWS 250610Z 08006KT 19/17 A2997 RMK A01 T01940173  RH  090%=      5-min Rain = 0
KBWS 250615Z 08007KT 19/17 A2997 RMK A01 T01910172  RH  091%=      5-min Rain = 0
KBWS 250620Z 09007KT 19/17 A2997 RMK A01 T01900172  RH  092%=      5-min Rain = 0
KBWS 250625Z 10006KT 19/17 A2997 RMK A01 T01910173  RH  092%=      5-min Rain = 0
KBWS 250630Z 11006KT 19/17 A2997 RMK A01 T01910173  RH  092%=      5-min Rain = 0
KBWS 250635Z 12006KT 19/17 A2996 RMK A01 T01910173  RH  092%=      5-min Rain = 0
KBWS 250640Z 11006KT 19/17 A2996 RMK A01 T01900173  RH  092%=      5-min Rain = 0
KBWS 250645Z 10006KT 19/17 A2996 RMK A01 T01900172  RH  092%=      5-min Rain = 0
KBWS 250650Z 09006KT 19/17 A2996 RMK A01 T01880172  RH  092%=      5-min Rain = 0
KBWS 250655Z 09006KT 19/17 A2996 RMK A01 T01870171  RH  093%=      5-min Rain = 0
KBWS 250700Z 08006KT 19/17 A2996 RMK A01 T01860171  RH  093%=      5-min Rain = 0
KBWS 250705Z 09006KT 19/17 A2996 RMK A01 T01860172  RH  094%=      5-min Rain = 0
KBWS 250710Z 10006KT 19/17 A2996 RMK A01 T01860172  RH  094%=      5-min Rain = 0
KBWS 250715Z 11006KT 19/17 A2996 RMK A01 T01860173  RH  094%=      5-min Rain = 0
KBWS 250720Z 11007KT 19/17 A2995 RMK A01 T01860173  RH  094%=      5-min Rain = 0
KBWS 250725Z 11007KT 19/17 A2995 RMK A01 T01870173  RH  094%=      5-min Rain = 0
KBWS 250730Z 11006KT 19/17 A2995 RMK A01 T01880173  RH  094%=      5-min Rain = 0
KBWS 250735Z 10006KT 19/17 A2995 RMK A01 T01880173  RH  093%=      5-min Rain = 0
KBWS 250740Z 10006KT 19/17 A2995 RMK A01 T01870173  RH  094%=      5-min Rain = 0
KBWS 250745Z 10007KT 19/17 A2995 RMK A01 T01860173  RH  094%=      5-min Rain = 0
KBWS 250750Z 11007KT 19/17 A2995 RMK A01 T01870174  RH  094%=      5-min Rain = 0
KBWS 250755Z 11007KT 19/17 A2995 RMK A01 T01880174  RH  094%=      5-min Rain = 0
KBWS 250800Z 11007KT 19/18 A2995 RMK A01 T01880175  RH  094%=      5-min Rain = 0
KBWS 250805Z 11007KT 19/18 A2995 RMK A01 T01890175  RH  094%=      5-min Rain = 0
KBWS 250810Z 11007KT 19/18 A2994 RMK A01 T01890175  RH  094%=      5-min Rain = 0
KBWS 250815Z 11007KT 19/18 A2994 RMK A01 T01910176  RH  094%=      5-min Rain = 0
KBWS 250820Z 11007KT 19/18 A2994 RMK A01 T01920177  RH  093%=      5-min Rain = 0
KBWS 250825Z 11007KT 20/18 A2994 RMK A01 T01950178  RH  092%=      5-min Rain = 0
KBWS 250830Z 11008KT 20/18 A2994 RMK A01 T01970179  RH  092%=      5-min Rain = 0
KBWS 250835Z 11008KT 20/18 A2994 RMK A01 T01990180  RH  091%=      5-min Rain = 0
KBWS 250840Z 12007KT 20/18 A2994 RMK A01 T02010180  RH  090%=      5-min Rain = 0
KBWS 250845Z 11009KT 20/18 A2994 RMK A01 T02020180  RH  090%=      5-min Rain = 0
KBWS 250850Z 11009KT 20/18 A2994 RMK A01 T02030180  RH  089%=      5-min Rain = 0
KBWS 250855Z 12010KT 20/18 A2994 RMK A01 T02040180  RH  088%=      5-min Rain = 0
KBWS 250900Z 12009KT 21/18 A2994 RMK A01 T02050181  RH  088%=      5-min Rain = 0
KBWS 250905Z 11010KT 21/18 A2994 RMK A01 T02050181  RH  088%=      5-min Rain = 0
KBWS 250910Z 11008KT 21/18 A2994 RMK A01 T02050181  RH  088%=      5-min Rain = 0
KBWS 250915Z 12009KT 21/18 A2994 RMK A01 T02050181  RH  088%=      5-min Rain = 0
KBWS 250920Z 12009KT 21/18 A2994 RMK A01 T02060181  RH  088%=      5-min Rain = 0
KBWS 250925Z 12010KT 21/18 A2994 RMK A01 T02060181  RH  088%=      5-min Rain = 0
KBWS 250930Z 12011KT 21/18 A2994 RMK A01 T02070182  RH  088%=      5-min Rain = 0
KBWS 250935Z 13010KT 21/18 A2994 RMK A01 T02080182  RH  087%=      5-min Rain = 0
KBWS 250940Z 13010KT 21/18 A2995 RMK A01 T02080182  RH  087%=      5-min Rain = 0
KBWS 250945Z 12012KT 21/18 A2995 RMK A01 T02080182  RH  087%=      5-min Rain = 0
KBWS 250950Z 12012KT 21/18 A2995 RMK A01 T02080182  RH  087%=      5-min Rain = 0
KBWS 250955Z 12012KT 21/18 A2995 RMK A01 T02080182  RH  087%=      5-min Rain = 0
KBWS 251000Z 12012KT 21/18 A2995 RMK A01 T02080182  RH  088%=      5-min Rain = 0
KBWS 251005Z 12011KT 21/18 A2995 RMK A01 T02080183  RH  088%=      5-min Rain = 0
KBWS 251010Z 12011KT 21/18 A2995 RMK A01 T02070183  RH  089%=      5-min Rain = 0
KBWS 251015Z 13011KT 21/18 A2996 RMK A01 T02070183  RH  089%=      5-min Rain = 0
KBWS 251020Z 13009KT 21/18 A2996 RMK A01 T02060183  RH  089%=      5-min Rain = 0
KBWS 251025Z 14009KT 21/18 A2996 RMK A01 T02060183  RH  089%=      5-min Rain = 0
KBWS 251030Z 14009KT 21/18 A2996 RMK A01 T02060183  RH  089%=      5-min Rain = 0
KBWS 251035Z 13011KT 21/18 A2996 RMK A01 T02060183  RH  089%=      5-min Rain = 0
KBWS 251040Z 14009KT 21/18 A2996 RMK A01 T02060183  RH  089%=      5-min Rain = 0
KBWS 251045Z 14010KT 21/18 A2996 RMK A01 T02060183  RH  089%=      5-min Rain = 0
KBWS 251050Z 14011KT 21/18 A2996 RMK A01 T02060183  RH  089%=      5-min Rain = 0
KBWS 251055Z 13010G15KT 21/18 A2996 RMK A01 T02060184  RH  090%=      5-min Rain = 0
KBWS 251100Z 13012KT 21/18 A2996 RMK A01 T02050184  RH  090%=      5-min Rain = 0
KBWS 251105Z 13011G17KT 21/18 A2996 RMK A01 T02050184  RH  090%=      5-min Rain = 0
KBWS 251110Z 13013KT 21/18 A2996 RMK A01 T02050184  RH  090%=      5-min Rain = 0
KBWS 251115Z 13011KT 20/18 A2997 RMK A01 T02040184  RH  090%=      5-min Rain = 0
KBWS 251120Z 14012KT 20/18 A2997 RMK A01 T02040184  RH  091%=      5-min Rain = 0
KBWS 251125Z 13012KT 20/19 A2997 RMK A01 T02040185  RH  091%=      5-min Rain = 0
KBWS 251130Z 13013KT 20/19 A2997 RMK A01 T02040185  RH  091%=      5-min Rain = 0
KBWS 251135Z 13012KT 20/19 A2997 RMK A01 T02030185  RH  091%=      5-min Rain = 0
KBWS 251140Z 13012G17KT 20/19 A2997 RMK A01 T02030185  RH  092%=      5-min Rain = 0
KBWS 251145Z 13012KT 20/19 A2997 RMK A01 T02020185  RH  092%=      5-min Rain = 0
KBWS 251150Z 13011KT 20/19 A2997 RMK A01 T02020185  RH  092%=      5-min Rain = 0
KBWS 251155Z 13013KT 20/19 A2997 RMK A01 T02020185  RH  092%=      5-min Rain = 0
KBWS 251200Z 13012G17KT 20/19 A2998 RMK A01 T02020185  RH  092%=      5-min Rain = 0
KBWS 251205Z 14012KT 20/19 A2998 RMK A01 T02020186  RH  092%=      5-min Rain = 0
KBWS 251210Z 13012G17KT 20/19 A2998 RMK A01 T02020186  RH  093%=      5-min Rain = 0
KBWS 251215Z 13013G18KT 20/19 A2998 RMK A01 T02020186  RH  093%=      5-min Rain = 0
KBWS 251220Z 14013KT 20/19 A2998 RMK A01 T02020186  RH  093%=      5-min Rain = 0
KBWS 251225Z 14012KT 20/19 A2998 RMK A01 T02020186  RH  093%=      5-min Rain = 0
KBWS 251230Z 14013KT 20/19 A2999 RMK A01 T02020186  RH  093%=      5-min Rain = 0
KBWS 251235Z 13012KT 20/19 A2999 RMK A01 T02020187  RH  093%=      5-min Rain = 0
KBWS 251240Z 13012KT 20/19 A2999 RMK A01 T02020187  RH  093%=      5-min Rain = 0
KBWS 251245Z 14012KT 20/19 A2999 RMK A01 T02030187  RH  093%=      5-min Rain = 0
KBWS 251250Z 14012KT 20/19 A2999 RMK A01 T02030187  RH  093%=      5-min Rain = 0
KBWS 251255Z 14012KT 20/19 A2999 RMK A01 T02030188  RH  093%=      5-min Rain = 0
KBWS 251300Z 14010KT 20/19 A2999 RMK A01 T02040188  RH  093%=      5-min Rain = 0
KBWS 251305Z 14011KT 20/19 A30 RMK A01 T02040188  RH  093%=      5-min Rain = 0
KBWS 251310Z 14013KT 21/19 A30 RMK A01 T02050188  RH  093%=      5-min Rain = 0
KBWS 251315Z 14013G18KT 21/19 A30 RMK A01 T02050188  RH  092%=      5-min Rain = 0
KBWS 251320Z 14011G17KT 21/19 A30 RMK A01 T02060189  RH  092%=      5-min Rain = 0
KBWS 251325Z 14012G17KT 21/19 A30 RMK A01 T02060189  RH  092%=      5-min Rain = 0
KBWS 251330Z 15013KT 21/19 A30 RMK A01 T02060189  RH  092%=      5-min Rain = 0
KBWS 251335Z 15011KT 21/19 A3001 RMK A01 T02070189  RH  092%=      5-min Rain = 0
KBWS 251340Z 15013KT 21/19 A30 RMK A01 T02070189  RH  092%=      5-min Rain = 0
KBWS 251345Z 15015KT 21/19 A30 RMK A01 T02070189  RH  091%=      5-min Rain = 0
KBWS 251350Z 15013KT 21/19 A3001 RMK A01 T02080189  RH  091%=      5-min Rain = 0
KBWS 251355Z 15014G19KT 21/19 A3001 RMK A01 T02080190  RH  091%=      5-min Rain = 0
KBWS 251400Z 14013KT 21/19 A3001 RMK A01 T02090190  RH  091%=      5-min Rain = 0
KBWS 251405Z 15012G17KT 21/19 A3001 RMK A01 T02100190  RH  091%=      5-min Rain = 0
KBWS 251410Z 15011KT 21/19 A3001 RMK A01 T02100190  RH  091%=      5-min Rain = 0
KBWS 251415Z 14012KT 21/19 A3001 RMK A01 T02110191  RH  091%=      5-min Rain = 0
KBWS 251420Z 14011G16KT 21/19 A3001 RMK A01 T02110191  RH  090%=      5-min Rain = 0
KBWS 251425Z 14011KT 21/19 A3001 RMK A01 T02120191  RH  090%=      5-min Rain = 0
KBWS 251430Z 15012KT 21/19 A3001 RMK A01 T02130192  RH  090%=      5-min Rain = 0
KBWS 251435Z 15011G17KT 22/19 A3001 RMK A01 T02150192  RH  089%=      5-min Rain = 0
KBWS 251440Z 14012KT 22/19 A3001 RMK A01 T02150192  RH  089%=      5-min Rain = 0
KBWS 251445Z 15014KT 22/19 A3001 RMK A01 T02170192  RH  088%=      5-min Rain = 0
KBWS 251450Z 15013KT 22/19 A3001 RMK A01 T02180193  RH  088%=      5-min Rain = 0
KBWS 251455Z 14013KT 22/19 A3001 RMK A01 T02190193  RH  087%=      5-min Rain = 0
KBWS 251500Z 14013G18KT 22/19 A3001 RMK A01 T02200193  RH  087%=      5-min Rain = 0
KBWS 251505Z 15015KT 22/19 A3001 RMK A01 T02200192  RH  087%=      5-min Rain = 0
KBWS 251510Z 16013G18KT 22/19 A3001 RMK A01 T02210192  RH  086%=      5-min Rain = 0
KBWS 251515Z 16015G20KT 22/19 A3001 RMK A01 T02210191  RH  085%=      5-min Rain = 0
KBWS 251520Z 16014KT 22/19 A3001 RMK A01 T02210191  RH  085%=      5-min Rain = 0
KBWS 251525Z 16014KT 22/19 A3001 RMK A01 T02220191  RH  085%=      5-min Rain = 0
KBWS 251530Z 16013KT 22/19 A3001 RMK A01 T02210191  RH  085%=      5-min Rain = 0
KBWS 251535Z 16013KT 22/19 A3002 RMK A01 T02200191  RH  086%=      5-min Rain = 0
KBWS 251540Z 16013KT 22/19 A3002 RMK A01 T02200192  RH  086%=      5-min Rain = 0
KBWS 251545Z 16013KT 22/19 A3002 RMK A01 T02200191  RH  086%=      5-min Rain = 0
KBWS 251550Z 16012G17KT 22/19 A3001 RMK A01 T02210191  RH  085%=      5-min Rain = 0
KBWS 251555Z 16013KT 22/19 A3001 RMK A01 T02230192  RH  085%=      5-min Rain = 0
KBWS 251600Z 15013KT 22/19 A3001 RMK A01 T02240192  RH  085%=      5-min Rain = 0
KBWS 251605Z 15014G19KT 22/19 A3001 RMK A01 T02220193  RH  086%=      5-min Rain = 0
KBWS 251610Z 15016KT 22/19 A3001 RMK A01 T02210194  RH  087%=      5-min Rain = 0
KBWS 251615Z 15016KT 22/19 A3001 RMK A01 T02200194  RH  088%=      5-min Rain = 0
KBWS 251620Z 15013KT 22/20 A3001 RMK A01 T02190195  RH  089%=      5-min Rain = 0
KBWS 251625Z 15016KT 22/20 A3001 RMK A01 T02210196  RH  088%=      5-min Rain = 0
KBWS 251630Z 16013G18KT 22/20 A3001 RMK A01 T02230198  RH  088%=      5-min Rain = 0
KBWS 251635Z 16011G17KT 22/20 A3001 RMK A01 T02220199  RH  089%=      5-min Rain = 0
KBWS 251640Z 16014KT 22/20 A3001 RMK A01 T02240198  RH  087%=      5-min Rain = 0
KBWS 251645Z 15014G19KT 22/20 A3001 RMK A01 T02240198  RH  088%=      5-min Rain = 0
KBWS 251650Z 15014KT 23/20 A3001 RMK A01 T02270200  RH  087%=      5-min Rain = 0
KBWS 251655Z 16015G20KT 23/20 A3001 RMK A01 T02290198  RH  085%=      5-min Rain = 0
KBWS 251700Z 16016G21KT 23/20 A3001 RMK A01 T02300198  RH  085%=      5-min Rain = 0
KBWS 251705Z 16016KT 23/20 A30 RMK A01 T02340200  RH  083%=      5-min Rain = 0
KBWS 251710Z 16015G20KT 24/20 A30 RMK A01 T02360201  RH  083%=      5-min Rain = 0
KBWS 251715Z 16015G20KT 23/20 A30 RMK A01 T02300201  RH  086%=      5-min Rain = 0
KBWS 251720Z 16015KT 23/20 A30 RMK A01 T02340202  RH  085%=      5-min Rain = 0
KBWS 251725Z 15014KT 23/20 A30 RMK A01 T02330200  RH  084%=      5-min Rain = 0
KBWS 251730Z 16013G21KT 24/20 A30 RMK A01 T02390202  RH  082%=      5-min Rain = 0
KBWS 251735Z 15016G21KT 25/20 A2999 RMK A01 T02470200  RH  078%=      5-min Rain = 0
KBWS 251740Z 16017KT 25/20 A30 RMK A01 T02450199  RH  078%=      5-min Rain = 0
KBWS 251745Z 16017KT 24/20 A30 RMK A01 T02440197  RH  077%=      5-min Rain = 0
KBWS 251750Z 16017G22KT 25/20 A2999 RMK A01 T02460196  RH  076%=      5-min Rain = 0
KBWS 251755Z 16017G22KT 25/20 A2999 RMK A01 T02450196  RH  076%=      5-min Rain = 0
KBWS 251800Z 15015G21KT 25/20 A2999 RMK A01 T02460196  RH  076%=      5-min Rain = 0
KBWS 251805Z 16015KT 25/20 A2999 RMK A01 T02450196  RH  076%=      5-min Rain = 0
KBWS 251810Z 16015G20KT 25/19 A2999 RMK A01 T02470194  RH  074%=      5-min Rain = 0
KBWS 251815Z 16014KT 25/20 A2998 RMK A01 T02490195  RH  074%=      5-min Rain = 0
KBWS 251820Z 17016G22KT 25/19 A2998 RMK A01 T02510192  RH  072%=      5-min Rain = 0
KBWS 251825Z 17017G23KT 25/19 A2997 RMK A01 T02530192  RH  071%=      5-min Rain = 0
KBWS 251830Z 16018G23KT 26/19 A2997 RMK A01 T02580192  RH  068%=      5-min Rain = 0
KBWS 251835Z 17020G25KT 26/19 A2997 RMK A01 T02580191  RH  068%=      5-min Rain = 0
KBWS 251840Z 16019G25KT 26/19 A2997 RMK A01 T02610191  RH  067%=      5-min Rain = 0
KBWS 251845Z 16020G25KT 26/19 A2997 RMK A01 T02590191  RH  068%=      5-min Rain = 0
KBWS 251850Z 17020G26KT 27/19 A2996 RMK A01 T02670192  RH  065%=      5-min Rain = 0
KBWS 251855Z 16020G25KT 26/19 A2996 RMK A01 T02640190  RH  066%=      5-min Rain = 0
KBWS 251900Z 16021G27KT 27/19 A2996 RMK A01 T02680192  RH  065%=      5-min Rain = 0
KBWS 251905Z 16021G26KT 27/19 A2996 RMK A01 T02700191  RH  064%=      5-min Rain = 0
KBWS 251910Z 16018G25KT 27/19 A2996 RMK A01 T02650191  RH  066%=      5-min Rain = 0
KBWS 251915Z 16020KT 27/19 A2995 RMK A01 T02660191  RH  065%=      5-min Rain = 0
KBWS 251920Z 16019G26KT 27/19 A2995 RMK A01 T02670192  RH  065%=      5-min Rain = 0
KBWS 251925Z 17019G25KT 27/19 A2995 RMK A01 T02700190  RH  063%=      5-min Rain = 0
KBWS 251930Z 16020G26KT 27/19 A2995 RMK A01 T02710190  RH  063%=      5-min Rain = 0
KBWS 251935Z 17021G28KT 28/19 A2995 RMK A01 T02750189  RH  061%=      5-min Rain = 0
KBWS 251940Z 17020G26KT 28/19 A2994 RMK A01 T02790189  RH  060%=      5-min Rain = 0
KBWS 251945Z 17020G29KT 28/19 A2994 RMK A01 T02810188  RH  058%=      5-min Rain = 0
KBWS 251950Z 17020G27KT 28/19 A2994 RMK A01 T02810187  RH  058%=      5-min Rain = 0
KBWS 251955Z 17021G29KT 28/19 A2993 RMK A01 T02810188  RH  058%=      5-min Rain = 0
KBWS 252000Z 17022G28KT 28/19 A2993 RMK A01 T02840188  RH  058%=      5-min Rain = 0
KBWS 252005Z 16021G26KT 28/19 A2993 RMK A01 T02800187  RH  059%=      5-min Rain = 0
KBWS 252010Z 16022G28KT 28/19 A2992 RMK A01 T02800187  RH  059%=      5-min Rain = 0
KBWS 252015Z 17021G26KT 29/19 A2992 RMK A01 T02870189  RH  057%=      5-min Rain = 0
KBWS 252020Z 17022G27KT 29/19 A2992 RMK A01 T02900187  RH  055%=      5-min Rain = 0
KBWS 252025Z 18021G28KT 29/19 A2992 RMK A01 T02920188  RH  055%=      5-min Rain = 0
KBWS 252030Z 16022G29KT 29/19 A2992 RMK A01 T02870187  RH  056%=      5-min Rain = 0
KBWS 252035Z 16021G29KT 29/19 A2992 RMK A01 T02880188  RH  056%=      5-min Rain = 0
KBWS 252040Z 16021G26KT 30/19 A2992 RMK A01 T02950187  RH  054%=      5-min Rain = 0
KBWS 252045Z 16019G26KT 29/19 A2991 RMK A01 T02900188  RH  055%=      5-min Rain = 0
KBWS 252050Z 16018G24KT 30/19 A2991 RMK A01 T02950189  RH  054%=      5-min Rain = 0
KBWS 252055Z 17021G27KT 30/18 A2992 RMK A01 T03000183  RH  051%=      5-min Rain = 0
KBWS 252100Z 18020G29KT 29/18 A2993 RMK A01 T02940183  RH  052%=      5-min Rain = 0
KBWS 252105Z 17023G30KT 30/18 A2993 RMK A01 T02960183  RH  052%=      5-min Rain = 0
KBWS 252110Z 16021G28KT 30/18 A2992 RMK A01 T02950183  RH  052%=      5-min Rain = 0
KBWS 252115Z 17024G29KT 30/18 A2992 RMK A01 T02990181  RH  050%=      5-min Rain = 0
KBWS 252120Z 16023G28KT 30/18 A2991 RMK A01 T02960183  RH  052%=      5-min Rain = 0
KBWS 252125Z 17022G30KT 29/18 A299 RMK A01 T02870180  RH  054%=      5-min Rain = 0
KBWS 252130Z 17023G29KT 28/18 A299 RMK A01 T02800179  RH  055%=      5-min Rain = 0
KBWS 252135Z 16023G29KT 28/18 A299 RMK A01 T02750182  RH  058%=      5-min Rain = 0
KBWS 252140Z 16022G32KT 27/18 A2991 RMK A01 T02720181  RH  059%=      5-min Rain = 0
KBWS 252145Z 17023G30KT 27/18 A2992 RMK A01 T02700180  RH  059%=      5-min Rain = 0
KBWS 252150Z 17022G29KT 27/18 A2992 RMK A01 T02680182  RH  061%=      5-min Rain = 0
KBWS 252155Z 16019G24KT 26/18 A2992 RMK A01 T02640183  RH  063%=      5-min Rain = 0
KBWS 252200Z 17020KT 26/18 A2993 RMK A01 T02620183  RH  063%=      5-min Rain = 0
KBWS 252205Z 17013G23KT 26/18 A2993 RMK A01 T02620182  RH  063%=      5-min Rain = 0
KBWS 252210Z 17013G18KT 26/18 A2993 RMK A01 T02620182  RH  063%=      5-min Rain = 0
KBWS 252215Z 17019G26KT 26/18 A2993 RMK A01 T02630183  RH  063%=      5-min Rain = 0
KBWS 252220Z 17023G31KT 27/18 A2992 RMK A01 T02670184  RH  062%=      5-min Rain = 0
KBWS 252225Z 16022G32KT 27/19 A2992 RMK A01 T02670186  RH  063%=      5-min Rain = 0
KBWS 252230Z 16021G26KT 27/19 A2992 RMK A01 T02660187  RH  064%=      5-min Rain = 0
KBWS 252235Z 17023G29KT 27/19 A2991 RMK A01 T02670186  RH  063%=      5-min Rain = 0
KBWS 252240Z 16022G27KT 27/19 A2991 RMK A01 T02680186  RH  062%=      5-min Rain = 0
KBWS 252245Z 16022G29KT 28/19 A299 RMK A01 T02760186  RH  060%=      5-min Rain = 0
KBWS 252250Z 16024G33KT 28/19 A299 RMK A01 T02800185  RH  058%=      5-min Rain = 0
KBWS 252255Z 17025G33KT 28/18 A299 RMK A01 T02840182  RH  055%=      5-min Rain = 0
KBWS 252300Z 17026G34KT 28/18 A299 RMK A01 T02840179  RH  054%=      5-min Rain = 0
KBWS 252305Z 17027G33KT 29/18 A299 RMK A01 T02850178  RH  054%=      5-min Rain = 0
KBWS 252310Z 18027G33KT 28/18 A299 RMK A01 T02840179  RH  054%=      5-min Rain = 0
KBWS 252315Z 17026G32KT 28/18 A299 RMK A01 T02830179  RH  054%=      5-min Rain = 0
KBWS 252320Z 18023G29KT 28/18 A299 RMK A01 T02840180  RH  055%=      5-min Rain = 0
KBWS 252325Z 17025G30KT 28/18 A299 RMK A01 T02840182  RH  055%=      5-min Rain = 0
KBWS 252330Z 17022G29KT 28/18 A299 RMK A01 T02840182  RH  055%=      5-min Rain = 0
KBWS 252335Z 18024G31KT 28/18 A299 RMK A01 T02830179  RH  055%=      5-min Rain = 0
KBWS 252340Z 18024G30KT 28/18 A299 RMK A01 T02810178  RH  055%=      5-min Rain = 0
KBWS 252345Z 17023G29KT 28/18 A299 RMK A01 T02810177  RH  055%=      5-min Rain = 0
KBWS 252350Z 17024G31KT 28/18 A2991 RMK A01 T02810179  RH  055%=      5-min Rain = 0
KBWS 252355Z 17024G29KT 28/18 A2991 RMK A01 T02780179  RH  056%=      5-min Rain = 0
KBWS 260000Z 16021G27KT 28/18 A2991 RMK A01 T02790180  RH  056%=      5-min Rain = 0
KBWS 260005Z 17022G27KT 28/18 A2991 RMK A01 T02770182  RH  057%=      5-min Rain = 0
KBWS 260010Z 16023G29KT 28/18 A2991 RMK A01 T02760182  RH  058%=      5-min Rain = 0
KBWS 260015Z 17022G28KT 28/18 A2991 RMK A01 T02750182  RH  059%=      5-min Rain = 0
KBWS 260020Z 16022G29KT 27/18 A2991 RMK A01 T02740182  RH  059%=      5-min Rain = 0
KBWS 260025Z 16023G28KT 27/18 A2991 RMK A01 T02710181  RH  059%=      5-min Rain = 0
KBWS 260030Z 16023KT 27/18 A2991 RMK A01 T02700180  RH  059%=      5-min Rain = 0
KBWS 260035Z 16020G25KT 27/18 A2991 RMK A01 T02700180  RH  059%=      5-min Rain = 0
KBWS 260040Z 16020G25KT 27/18 A2991 RMK A01 T02700180  RH  059%=      5-min Rain = 0
KBWS 260045Z 16021G28KT 27/18 A2991 RMK A01 T02690179  RH  059%=      5-min Rain = 0
KBWS 260050Z 16021G31KT 27/18 A2991 RMK A01 T02680179  RH  060%=      5-min Rain = 0
KBWS 260055Z 16020KT 27/18 A2991 RMK A01 T02660181  RH  061%=      5-min Rain = 0
KBWS 260100Z 16021G27KT 27/18 A2992 RMK A01 T02650181  RH  062%=      5-min Rain = 0
KBWS 260105Z 16020G26KT 26/18 A2992 RMK A01 T02640180  RH  062%=      5-min Rain = 0
KBWS 260110Z 16022G30KT 26/18 A2992 RMK A01 T02630180  RH  062%=      5-min Rain = 0
KBWS 260115Z 16021G28KT 26/18 A2992 RMK A01 T02610179  RH  062%=      5-min Rain = 0
KBWS 260120Z 16020KT 26/18 A2992 RMK A01 T02600180  RH  063%=      5-min Rain = 0
KBWS 260125Z 16019G24KT 26/18 A2992 RMK A01 T02580180  RH  064%=      5-min Rain = 0
KBWS 260130Z 15019G25KT 26/18 A2992 RMK A01 T02570180  RH  064%=      5-min Rain = 0
KBWS 260135Z 16017KT 25/18 A2992 RMK A01 T02540181  RH  065%=      5-min Rain = 0
KBWS 260140Z 15017G22KT 25/18 A2993 RMK A01 T02520181  RH  066%=      5-min Rain = 0
KBWS 260145Z 15018KT 25/18 A2993 RMK A01 T02510180  RH  067%=      5-min Rain = 0
KBWS 260150Z 16017KT 25/18 A2993 RMK A01 T02490180  RH  067%=      5-min Rain = 0
KBWS 260155Z 16016G23KT 25/18 A2994 RMK A01 T02470180  RH  068%=      5-min Rain = 0
KBWS 260200Z 16015KT 25/18 A2994 RMK A01 T02460181  RH  068%=      5-min Rain = 0
KBWS 260205Z 16015G20KT 25/18 A2994 RMK A01 T02450181  RH  069%=      5-min Rain = 0
KBWS 260210Z 16014G19KT 24/18 A2994 RMK A01 T02440181  RH  069%=      5-min Rain = 0
KBWS 260215Z 15012KT 24/18 A2995 RMK A01 T02430181  RH  070%=      5-min Rain = 0
KBWS 260220Z 15013KT 24/18 A2994 RMK A01 T02410181  RH  071%=      5-min Rain = 0
KBWS 260225Z 15011KT 24/18 A2994 RMK A01 T02400181  RH  071%=      5-min Rain = 0
KBWS 260230Z 15011KT 24/18 A2994 RMK A01 T02380181  RH  072%=      5-min Rain = 0
KBWS 260235Z 16012G17KT 24/18 A2994 RMK A01 T02370181  RH  073%=      5-min Rain = 0
KBWS 260240Z 16013KT 24/18 A2994 RMK A01 T02380181  RH  072%=      5-min Rain = 0
KBWS 260245Z 16014KT 24/18 A2995 RMK A01 T02370180  RH  073%=      5-min Rain = 0
KBWS 260250Z 16013KT 24/18 A2995 RMK A01 T02350180  RH  073%=      5-min Rain = 0
KBWS 260255Z 15011KT 23/18 A2995 RMK A01 T02330180  RH  074%=      5-min Rain = 0
KBWS 260300Z 15011KT 23/18 A2995 RMK A01 T02300180  RH  075%=      5-min Rain = 0
KBWS 260305Z 15011KT 23/18 A2995 RMK A01 T02290180  RH  076%=      5-min Rain = 0
KBWS 260310Z 15011KT 23/18 A2995 RMK A01 T02290180  RH  076%=      5-min Rain = 0
KBWS 260315Z 16012KT 23/18 A2995 RMK A01 T02280180  RH  076%=      5-min Rain = 0
KBWS 260320Z 16013KT 23/18 A2995 RMK A01 T02280179  RH  076%=      5-min Rain = 0
KBWS 260325Z 16012KT 23/18 A2996 RMK A01 T02270179  RH  076%=      5-min Rain = 0
KBWS 260330Z 16011KT 23/18 A2996 RMK A01 T02260179  RH  077%=      5-min Rain = 0
KBWS 260335Z 16011KT 23/18 A2996 RMK A01 T02250179  RH  077%=      5-min Rain = 0
KBWS 260340Z 16012KT 23/18 A2996 RMK A01 T02250178  RH  077%=      5-min Rain = 0
KBWS 260345Z 16013KT 23/18 A2996 RMK A01 T02250176  RH  076%=      5-min Rain = 0
KBWS 260350Z 16013KT 22/17 A2996 RMK A01 T02240174  RH  075%=      5-min Rain = 0
KBWS 260355Z 16013KT 22/17 A2996 RMK A01 T02240172  RH  074%=      5-min Rain = 0
KBWS 260400Z 17011KT 22/17 A2996 RMK A01 T02230170  RH  074%=      5-min Rain = 0
KBWS 260405Z 17011KT 22/17 A2996 RMK A01 T02220169  RH  074%=      5-min Rain = 0
KBWS 260410Z 17011KT 22/17 A2996 RMK A01 T02200169  RH  074%=      5-min Rain = 0
KBWS 260415Z 17010KT 22/17 A2996 RMK A01 T02180168  RH  075%=      5-min Rain = 0
KBWS 260420Z 17010KT 22/17 A2996 RMK A01 T02170168  RH  076%=      5-min Rain = 0
KBWS 260425Z 17010KT 22/17 A2996 RMK A01 T02160169  RH  076%=      5-min Rain = 0
KBWS 260430Z 18010KT 22/17 A2996 RMK A01 T02150169  RH  077%=      5-min Rain = 0
KBWS 260435Z 18009KT 21/17 A2996 RMK A01 T02140168  RH  077%=      5-min Rain = 0
KBWS 260440Z 18009KT 21/17 A2996 RMK A01 T02130168  RH  078%=      5-min Rain = 0
KBWS 260445Z 18009KT 21/17 A2996 RMK A01 T02110168  RH  078%=      5-min Rain = 0
KBWS 260450Z 18009KT 21/17 A2996 RMK A01 T02100168  RH  079%=      5-min Rain = 0
KBWS 260455Z 18009KT 21/17 A2996 RMK A01 T02100168  RH  079%=      5-min Rain = 0

Page generated in 0.0132 seconds.